Fort Saint John, Canada
Current Conditions -  °F | °C
As of 8:00 PM on Friday 24 Oct 2014 (Local Time) from CYXJ Reporting Station
Clear Clear  
Wind Chill: 30°   Ceiling: Unl
Heat Index: 36°   Visibility: 15mi
Dew Point: 27°   Wind: 7mph
Humidity: 70%   Direction: 230°SW
Pressure: 29.92"   Gusts: NA
Location:  56.25°N, 120.85°W
Report Text: CYXJ 250200Z 23006KT 15SM SKC 02/M03 A2992 RMK SLP165
Loading
Personal Weather Stations






























Interactive Weather Map New forecast layout! Learn more

10-Day Weather Forecast

Advertisements
Track Severe Weather on mobile